sensor_id;sensor_type;location;lat;lon;timestamp;P1;durP1;ratioP1;P2;durP2;ratioP2
6983;SDS011;3532;51.118;7.210;2024-03-23T00:53:02;11.33;;;6.60;;
6983;SDS011;3532;51.118;7.210;2024-03-23T00:55:28;10.47;;;7.03;;
6983;SDS011;3532;51.118;7.210;2024-03-23T00:57:53;12.93;;;7.43;;
6983;SDS011;3532;51.118;7.210;2024-03-23T01:00:19;11.53;;;7.30;;
6983;SDS011;3532;51.118;7.210;2024-03-23T01:02:44;10.63;;;6.57;;
6983;SDS011;3532;51.118;7.210;2024-03-23T01:05:09;20.03;;;7.10;;
6983;SDS011;3532;51.118;7.210;2024-03-23T01:07:35;11.00;;;7.37;;
6983;SDS011;3532;51.118;7.210;2024-03-23T01:10:00;13.67;;;6.97;;
6983;SDS011;3532;51.118;7.210;2024-03-23T01:12:25;12.77;;;5.63;;
6983;SDS011;3532;51.118;7.210;2024-03-23T01:14:50;9.53;;;5.23;;
6983;SDS011;3532;51.118;7.210;2024-03-23T01:17:16;8.57;;;5.70;;
6983;SDS011;3532;51.118;7.210;2024-03-23T01:19:41;7.57;;;5.83;;
6983;SDS011;3532;51.118;7.210;2024-03-23T01:22:07;11.07;;;6.27;;
6983;SDS011;3532;51.118;7.210;2024-03-23T01:24:34;10.13;;;4.90;;
6983;SDS011;3532;51.118;7.210;2024-03-23T01:27:00;7.53;;;4.97;;
6983;SDS011;3532;51.118;7.210;2024-03-23T01:29:25;10.53;;;5.10;;
6983;SDS011;3532;51.118;7.210;2024-03-23T01:31:50;7.93;;;4.20;;
6983;SDS011;3532;51.118;7.210;2024-03-23T01:36:53;10.00;;;5.47;;
6983;SDS011;3532;51.118;7.210;2024-03-23T01:39:18;8.63;;;5.13;;
6983;SDS011;3532;51.118;7.210;2024-03-23T01:41:43;6.97;;;4.40;;
6983;SDS011;3532;51.118;7.210;2024-03-23T01:44:09;8.63;;;5.37;;
6983;SDS011;3532;51.118;7.210;2024-03-23T01:46:37;9.80;;;4.23;;
6983;SDS011;3532;51.118;7.210;2024-03-23T01:49:04;7.20;;;4.70;;
6983;SDS011;3532;51.118;7.210;2024-03-23T01:51:30;8.53;;;3.50;;
6983;SDS011;3532;51.118;7.210;2024-03-23T01:53:55;8.17;;;4.67;;
6983;SDS011;3532;51.118;7.210;2024-03-23T01:56:21;7.33;;;3.60;;
6983;SDS011;3532;51.118;7.210;2024-03-23T01:58:46;9.17;;;4.33;;
6983;SDS011;3532;51.118;7.210;2024-03-23T02:01:12;7.50;;;4.13;;
6983;SDS011;3532;51.118;7.210;2024-03-23T02:03:37;5.90;;;3.17;;
6983;SDS011;3532;51.118;7.210;2024-03-23T02:06:02;8.70;;;4.13;;
6983;SDS011;3532;51.118;7.210;2024-03-23T02:08:28;10.47;;;4.63;;
6983;SDS011;3532;51.118;7.210;2024-03-23T02:10:54;4.23;;;3.33;;
6983;SDS011;3532;51.118;7.210;2024-03-23T02:13:19;7.33;;;3.67;;
6983;SDS011;3532;51.118;7.210;2024-03-23T02:15:44;4.00;;;3.50;;
6983;SDS011;3532;51.118;7.210;2024-03-23T02:18:10;8.13;;;3.67;;
6983;SDS011;3532;51.118;7.210;2024-03-23T02:20:35;8.03;;;4.00;;
6983;SDS011;3532;51.118;7.210;2024-03-23T02:23:01;10.23;;;3.53;;
6983;SDS011;3532;51.118;7.210;2024-03-23T02:25:27;5.50;;;3.47;;
6983;SDS011;3532;51.118;7.210;2024-03-23T02:27:52;10.60;;;4.30;;
6983;SDS011;3532;51.118;7.210;2024-03-23T02:30:21;9.03;;;4.33;;
6983;SDS011;3532;51.118;7.210;2024-03-23T02:32:46;7.30;;;3.80;;
6983;SDS011;3532;51.118;7.210;2024-03-23T02:35:11;8.90;;;4.37;;
6983;SDS011;3532;51.118;7.210;2024-03-23T02:40:11;11.23;;;3.63;;
6983;SDS011;3532;51.118;7.210;2024-03-23T02:42:36;8.47;;;3.57;;
6983;SDS011;3532;51.118;7.210;2024-03-23T02:45:01;8.27;;;3.90;;
6983;SDS011;3532;51.118;7.210;2024-03-23T02:47:29;7.73;;;3.90;;
6983;SDS011;3532;51.118;7.210;2024-03-23T02:49:55;7.60;;;3.63;;
6983;SDS011;3532;51.118;7.210;2024-03-23T02:52:20;6.33;;;4.07;;
6983;SDS011;3532;51.118;7.210;2024-03-23T02:54:45;9.10;;;3.80;;
6983;SDS011;3532;51.118;7.210;2024-03-23T02:57:11;4.77;;;3.07;;
6983;SDS011;3532;51.118;7.210;2024-03-23T02:59:36;4.77;;;2.73;;
6983;SDS011;3532;51.118;7.210;2024-03-23T03:02:02;7.97;;;3.77;;
6983;SDS011;3532;51.118;7.210;2024-03-23T03:04:29;5.23;;;3.53;;
6983;SDS011;3532;51.118;7.210;2024-03-23T03:06:55;8.63;;;2.97;;
6983;SDS011;3532;51.118;7.210;2024-03-23T03:09:20;6.20;;;2.63;;
6983;SDS011;3532;51.118;7.210;2024-03-23T03:11:46;7.10;;;3.07;;
6983;SDS011;3532;51.118;7.210;2024-03-23T03:14:11;7.50;;;2.80;;
6983;SDS011;3532;51.118;7.210;2024-03-23T03:16:37;8.70;;;3.13;;
6983;SDS011;3532;51.118;7.210;2024-03-23T03:19:02;6.93;;;3.27;;
6983;SDS011;3532;51.118;7.210;2024-03-23T03:21:27;9.10;;;3.33;;
6983;SDS011;3532;51.118;7.210;2024-03-23T03:23:53;7.63;;;3.20;;
6983;SDS011;3532;51.118;7.210;2024-03-23T03:26:19;7.77;;;2.93;;
6983;SDS011;3532;51.118;7.210;2024-03-23T03:28:44;2.60;;;2.40;;
6983;SDS011;3532;51.118;7.210;2024-03-23T03:31:13;5.40;;;2.80;;
6983;SDS011;3532;51.118;7.210;2024-03-23T03:33:42;6.90;;;2.83;;
6983;SDS011;3532;51.118;7.210;2024-03-23T03:36:08;5.80;;;2.77;;
6983;SDS011;3532;51.118;7.210;2024-03-23T03:38:33;6.60;;;3.27;;
6983;SDS011;3532;51.118;7.210;2024-03-23T03:41:00;5.00;;;2.57;;
6983;SDS011;3532;51.118;7.210;2024-03-23T03:43:26;7.33;;;2.70;;
6983;SDS011;3532;51.118;7.210;2024-03-23T03:45:52;4.20;;;2.83;;
6983;SDS011;3532;51.118;7.210;2024-03-23T03:48:17;7.17;;;3.23;;
6983;SDS011;3532;51.118;7.210;2024-03-23T03:50:43;8.07;;;2.63;;
6983;SDS011;3532;51.118;7.210;2024-03-23T03:53:08;8.17;;;3.10;;
6983;SDS011;3532;51.118;7.210;2024-03-23T03:55:33;6.67;;;3.13;;
6983;SDS011;3532;51.118;7.210;2024-03-23T03:57:59;7.13;;;3.20;;
6983;SDS011;3532;51.118;7.210;2024-03-23T04:00:24;5.97;;;2.70;;
6983;SDS011;3532;51.118;7.210;2024-03-23T04:02:50;3.93;;;2.17;;
6983;SDS011;3532;51.118;7.210;2024-03-23T04:05:15;6.80;;;3.00;;
6983;SDS011;3532;51.118;7.210;2024-03-23T04:07:41;4.00;;;2.60;;
6983;SDS011;3532;51.118;7.210;2024-03-23T04:10:07;4.87;;;2.47;;
6983;SDS011;3532;51.118;7.210;2024-03-23T04:12:33;6.27;;;2.80;;
6983;SDS011;3532;51.118;7.210;2024-03-23T04:14:58;8.70;;;2.80;;
6983;SDS011;3532;51.118;7.210;2024-03-23T04:17:24;9.27;;;3.17;;
6983;SDS011;3532;51.118;7.210;2024-03-23T04:19:50;10.13;;;2.73;;
6983;SDS011;3532;51.118;7.210;2024-03-23T04:22:17;7.63;;;3.20;;
6983;SDS011;3532;51.118;7.210;2024-03-23T04:24:42;7.60;;;3.10;;
6983;SDS011;3532;51.118;7.210;2024-03-23T04:27:08;11.37;;;3.67;;
6983;SDS011;3532;51.118;7.210;2024-03-23T04:29:33;4.23;;;2.83;;
6983;SDS011;3532;51.118;7.210;2024-03-23T04:31:58;11.43;;;3.73;;
6983;SDS011;3532;51.118;7.210;2024-03-23T04:34:24;8.53;;;3.30;;
6983;SDS011;3532;51.118;7.210;2024-03-23T04:36:49;6.23;;;3.50;;
6983;SDS011;3532;51.118;7.210;2024-03-23T04:39:15;5.70;;;2.97;;
6983;SDS011;3532;51.118;7.210;2024-03-23T04:41:40;9.80;;;3.23;;
6983;SDS011;3532;51.118;7.210;2024-03-23T04:44:06;4.77;;;2.83;;
6983;SDS011;3532;51.118;7.210;2024-03-23T04:46:31;6.10;;;3.43;;
6983;SDS011;3532;51.118;7.210;2024-03-23T04:48:56;7.33;;;3.77;;
6983;SDS011;3532;51.118;7.210;2024-03-23T04:51:25;4.90;;;3.13;;
6983;SDS011;3532;51.118;7.210;2024-03-23T04:53:51;6.50;;;3.10;;
6983;SDS011;3532;51.118;7.210;2024-03-23T04:56:16;5.00;;;3.13;;
6983;SDS011;3532;51.118;7.210;2024-03-23T04:58:42;6.60;;;3.30;;
6983;SDS011;3532;51.118;7.210;2024-03-23T05:01:08;6.33;;;3.80;;
6983;SDS011;3532;51.118;7.210;2024-03-23T05:03:33;9.20;;;3.67;;
6983;SDS011;3532;51.118;7.210;2024-03-23T05:05:59;6.40;;;3.50;;
6983;SDS011;3532;51.118;7.210;2024-03-23T05:08:24;5.33;;;3.13;;
6983;SDS011;3532;51.118;7.210;2024-03-23T05:10:49;9.17;;;3.80;;
6983;SDS011;3532;51.118;7.210;2024-03-23T05:13:15;8.60;;;3.63;;
6983;SDS011;3532;51.118;7.210;2024-03-23T05:15:40;7.90;;;3.60;;
6983;SDS011;3532;51.118;7.210;2024-03-23T05:18:06;8.70;;;3.80;;
6983;SDS011;3532;51.118;7.210;2024-03-23T05:20:31;8.73;;;4.40;;
6983;SDS011;3532;51.118;7.210;2024-03-23T05:22:57;8.73;;;4.53;;
6983;SDS011;3532;51.118;7.210;2024-03-23T05:25:22;9.80;;;4.40;;
6983;SDS011;3532;51.118;7.210;2024-03-23T05:27:48;9.67;;;5.30;;
6983;SDS011;3532;51.118;7.210;2024-03-23T05:30:13;10.17;;;4.53;;
6983;SDS011;3532;51.118;7.210;2024-03-23T05:32:39;7.40;;;4.77;;
6983;SDS011;3532;51.118;7.210;2024-03-23T05:35:06;12.53;;;5.53;;
6983;SDS011;3532;51.118;7.210;2024-03-23T05:37:32;9.67;;;5.30;;
6983;SDS011;3532;51.118;7.210;2024-03-23T05:39:59;13.90;;;6.43;;
6983;SDS011;3532;51.118;7.210;2024-03-23T05:42:24;10.03;;;5.97;;
6983;SDS011;3532;51.118;7.210;2024-03-23T05:44:49;10.67;;;4.97;;
6983;SDS011;3532;51.118;7.210;2024-03-23T05:47:15;10.77;;;6.23;;
6983;SDS011;3532;51.118;7.210;2024-03-23T05:49:41;13.13;;;5.93;;
6983;SDS011;3532;51.118;7.210;2024-03-23T05:52:10;12.00;;;5.30;;
6983;SDS011;3532;51.118;7.210;2024-03-23T05:54:35;10.77;;;6.50;;
6983;SDS011;3532;51.118;7.210;2024-03-23T05:57:01;11.70;;;4.93;;
6983;SDS011;3532;51.118;7.210;2024-03-23T05:59:27;11.63;;;5.60;;
6983;SDS011;3532;51.118;7.210;2024-03-23T06:01:52;14.93;;;5.73;;
6983;SDS011;3532;51.118;7.210;2024-03-23T06:04:18;12.67;;;5.40;;
6983;SDS011;3532;51.118;7.210;2024-03-23T06:06:43;12.67;;;5.37;;
6983;SDS011;3532;51.118;7.210;2024-03-23T06:09:09;10.93;;;4.83;;
6983;SDS011;3532;51.118;7.210;2024-03-23T06:11:34;12.80;;;4.77;;
6983;SDS011;3532;51.118;7.210;2024-03-23T06:13:59;7.53;;;4.33;;
6983;SDS011;3532;51.118;7.210;2024-03-23T06:16:25;6.50;;;3.93;;
6983;SDS011;3532;51.118;7.210;2024-03-23T06:18:50;8.07;;;4.67;;
6983;SDS011;3532;51.118;7.210;2024-03-23T06:21:16;7.30;;;4.10;;
6983;SDS011;3532;51.118;7.210;2024-03-23T06:23:41;8.17;;;4.60;;
6983;SDS011;3532;51.118;7.210;2024-03-23T06:26:07;8.93;;;4.90;;
6983;SDS011;3532;51.118;7.210;2024-03-23T06:28:33;11.50;;;5.07;;
6983;SDS011;3532;51.118;7.210;2024-03-23T06:30:58;10.53;;;5.17;;
6983;SDS011;3532;51.118;7.210;2024-03-23T06:33:24;7.37;;;4.73;;
6983;SDS011;3532;51.118;7.210;2024-03-23T06:35:50;6.97;;;3.93;;
6983;SDS011;3532;51.118;7.210;2024-03-23T06:38:18;10.77;;;3.93;;
6983;SDS011;3532;51.118;7.210;2024-03-23T06:40:43;5.57;;;3.80;;
6983;SDS011;3532;51.118;7.210;2024-03-23T06:43:12;6.23;;;3.80;;
6983;SDS011;3532;51.118;7.210;2024-03-23T06:45:38;10.50;;;3.90;;
6983;SDS011;3532;51.118;7.210;2024-03-23T06:48:04;10.07;;;5.33;;
6983;SDS011;3532;51.118;7.210;2024-03-23T06:50:29;11.60;;;4.30;;
6983;SDS011;3532;51.118;7.210;2024-03-23T06:52:54;13.00;;;4.70;;
6983;SDS011;3532;51.118;7.210;2024-03-23T06:55:20;11.50;;;5.23;;
6983;SDS011;3532;51.118;7.210;2024-03-23T06:57:45;12.67;;;5.93;;
6983;SDS011;3532;51.118;7.210;2024-03-23T07:00:11;10.20;;;6.10;;
6983;SDS011;3532;51.118;7.210;2024-03-23T07:02:38;9.77;;;5.00;;
6983;SDS011;3532;51.118;7.210;2024-03-23T07:05:03;13.03;;;5.50;;
6983;SDS011;3532;51.118;7.210;2024-03-23T07:07:29;14.83;;;6.13;;
6983;SDS011;3532;51.118;7.210;2024-03-23T07:09:55;10.83;;;5.53;;
6983;SDS011;3532;51.118;7.210;2024-03-23T07:12:20;12.53;;;6.37;;
6983;SDS011;3532;51.118;7.210;2024-03-23T07:14:46;16.63;;;7.00;;
6983;SDS011;3532;51.118;7.210;2024-03-23T07:17:11;13.03;;;6.97;;
6983;SDS011;3532;51.118;7.210;2024-03-23T07:19:36;9.63;;;6.57;;
6983;SDS011;3532;51.118;7.210;2024-03-23T07:22:02;15.33;;;6.87;;
6983;SDS011;3532;51.118;7.210;2024-03-23T07:24:27;17.60;;;8.10;;
6983;SDS011;3532;51.118;7.210;2024-03-23T07:26:52;14.33;;;7.47;;
6983;SDS011;3532;51.118;7.210;2024-03-23T07:29:19;17.47;;;7.40;;
6983;SDS011;3532;51.118;7.210;2024-03-23T07:31:44;14.93;;;7.50;;
6983;SDS011;3532;51.118;7.210;2024-03-23T07:34:09;12.93;;;8.07;;
6983;SDS011;3532;51.118;7.210;2024-03-23T07:36:35;15.47;;;8.40;;
6983;SDS011;3532;51.118;7.210;2024-03-23T07:39:00;18.33;;;8.20;;
6983;SDS011;3532;51.118;7.210;2024-03-23T07:41:25;16.90;;;8.00;;
6983;SDS011;3532;51.118;7.210;2024-03-23T07:43:53;20.50;;;9.27;;
6983;SDS011;3532;51.118;7.210;2024-03-23T07:46:18;14.10;;;7.40;;
6983;SDS011;3532;51.118;7.210;2024-03-23T07:48:45;15.17;;;8.73;;
6983;SDS011;3532;51.118;7.210;2024-03-23T07:51:31;13.97;;;8.03;;
6983;SDS011;3532;51.118;7.210;2024-03-23T07:53:56;14.33;;;7.63;;
6983;SDS011;3532;51.118;7.210;2024-03-23T07:56:21;16.63;;;7.93;;
6983;SDS011;3532;51.118;7.210;2024-03-23T07:58:48;15.67;;;8.60;;
6983;SDS011;3532;51.118;7.210;2024-03-23T08:01:14;10.20;;;7.37;;
6983;SDS011;3532;51.118;7.210;2024-03-23T08:03:41;14.70;;;7.73;;
6983;SDS011;3532;51.118;7.210;2024-03-23T08:08:35;15.77;;;8.17;;
6983;SDS011;3532;51.118;7.210;2024-03-23T08:11:00;14.47;;;7.40;;
6983;SDS011;3532;51.118;7.210;2024-03-23T08:13:26;17.47;;;7.03;;
6983;SDS011;3532;51.118;7.210;2024-03-23T08:15:51;12.00;;;7.27;;
6983;SDS011;3532;51.118;7.210;2024-03-23T08:18:17;15.17;;;7.43;;
6983;SDS011;3532;51.118;7.210;2024-03-23T08:20:42;19.17;;;6.60;;
6983;SDS011;3532;51.118;7.210;2024-03-23T08:23:07;13.57;;;6.03;;
6983;SDS011;3532;51.118;7.210;2024-03-23T08:25:33;14.40;;;7.00;;
6983;SDS011;3532;51.118;7.210;2024-03-23T08:27:59;15.87;;;7.20;;
6983;SDS011;3532;51.118;7.210;2024-03-23T08:30:25;16.07;;;6.60;;
6983;SDS011;3532;51.118;7.210;2024-03-23T08:32:50;18.00;;;7.10;;
6983;SDS011;3532;51.118;7.210;2024-03-23T08:35:16;16.17;;;6.80;;
6983;SDS011;3532;51.118;7.210;2024-03-23T08:37:41;11.80;;;6.17;;
6983;SDS011;3532;51.118;7.210;2024-03-23T08:40:06;17.77;;;7.80;;
6983;SDS011;3532;51.118;7.210;2024-03-23T08:42:33;17.27;;;7.77;;
6983;SDS011;3532;51.118;7.210;2024-03-23T08:44:59;23.37;;;7.93;;
6983;SDS011;3532;51.118;7.210;2024-03-23T08:47:24;14.97;;;8.00;;
6983;SDS011;3532;51.118;7.210;2024-03-23T08:49:49;17.23;;;8.53;;
6983;SDS011;3532;51.118;7.210;2024-03-23T08:52:15;10.23;;;6.20;;
6983;SDS011;3532;51.118;7.210;2024-03-23T08:54:40;10.63;;;6.40;;
6983;SDS011;3532;51.118;7.210;2024-03-23T08:57:05;14.60;;;6.27;;
6983;SDS011;3532;51.118;7.210;2024-03-23T08:59:32;11.73;;;6.03;;
6983;SDS011;3532;51.118;7.210;2024-03-23T09:01:57;8.20;;;5.13;;
6983;SDS011;3532;51.118;7.210;2024-03-23T09:04:23;13.90;;;6.77;;
6983;SDS011;3532;51.118;7.210;2024-03-23T09:06:48;13.43;;;6.07;;
6983;SDS011;3532;51.118;7.210;2024-03-23T09:09:13;15.40;;;5.40;;
6983;SDS011;3532;51.118;7.210;2024-03-23T09:11:38;12.57;;;5.63;;
6983;SDS011;3532;51.118;7.210;2024-03-23T09:14:04;17.43;;;5.50;;
6983;SDS011;3532;51.118;7.210;2024-03-23T09:16:29;10.40;;;4.83;;
6983;SDS011;3532;51.118;7.210;2024-03-23T09:18:54;10.83;;;4.37;;
6983;SDS011;3532;51.118;7.210;2024-03-23T09:21:20;11.27;;;5.13;;
6983;SDS011;3532;51.118;7.210;2024-03-23T09:23:46;10.53;;;5.67;;
6983;SDS011;3532;51.118;7.210;2024-03-23T09:26:11;12.27;;;4.93;;
6983;SDS011;3532;51.118;7.210;2024-03-23T09:28:37;9.77;;;4.83;;
6983;SDS011;3532;51.118;7.210;2024-03-23T09:31:06;10.63;;;4.53;;
6983;SDS011;3532;51.118;7.210;2024-03-23T09:33:32;7.83;;;4.37;;
6983;SDS011;3532;51.118;7.210;2024-03-23T09:36:02;7.40;;;3.73;;
6983;SDS011;3532;51.118;7.210;2024-03-23T09:38:28;10.67;;;4.87;;
6983;SDS011;3532;51.118;7.210;2024-03-23T09:40:53;7.20;;;4.90;;
6983;SDS011;3532;51.118;7.210;2024-03-23T09:43:19;7.63;;;4.60;;
6983;SDS011;3532;51.118;7.210;2024-03-23T09:45:45;10.87;;;4.80;;
6983;SDS011;3532;51.118;7.210;2024-03-23T09:48:10;9.73;;;4.53;;
6983;SDS011;3532;51.118;7.210;2024-03-23T09:50:39;9.77;;;4.30;;
6983;SDS011;3532;51.118;7.210;2024-03-23T09:53:09;10.43;;;4.57;;
6983;SDS011;3532;51.118;7.210;2024-03-23T09:55:39;9.80;;;4.00;;
6983;SDS011;3532;51.118;7.210;2024-03-23T09:58:06;6.90;;;4.53;;
6983;SDS011;3532;51.118;7.210;2024-03-23T10:00:31;10.20;;;4.17;;
6983;SDS011;3532;51.118;7.210;2024-03-23T10:03:00;6.27;;;4.10;;
6983;SDS011;3532;51.118;7.210;2024-03-23T10:05:30;9.80;;;3.77;;
6983;SDS011;3532;51.118;7.210;2024-03-23T10:10:38;7.03;;;3.67;;
6983;SDS011;3532;51.118;7.210;2024-03-23T10:13:04;6.53;;;3.60;;
6983;SDS011;3532;51.118;7.210;2024-03-23T10:15:29;10.03;;;3.90;;
6983;SDS011;3532;51.118;7.210;2024-03-23T10:17:54;6.83;;;3.40;;
6983;SDS011;3532;51.118;7.210;2024-03-23T10:20:20;11.27;;;4.00;;
6983;SDS011;3532;51.118;7.210;2024-03-23T10:22:50;7.60;;;4.53;;
6983;SDS011;3532;51.118;7.210;2024-03-23T10:25:16;5.87;;;4.10;;
6983;SDS011;3532;51.118;7.210;2024-03-23T10:27:42;6.77;;;3.67;;
6983;SDS011;3532;51.118;7.210;2024-03-23T10:30:17;10.13;;;4.40;;
6983;SDS011;3532;51.118;7.210;2024-03-23T10:32:42;8.83;;;3.23;;
6983;SDS011;3532;51.118;7.210;2024-03-23T10:35:14;9.23;;;2.87;;
6983;SDS011;3532;51.118;7.210;2024-03-23T10:37:44;8.40;;;3.23;;
6983;SDS011;3532;51.118;7.210;2024-03-23T10:40:10;5.87;;;2.93;;
6983;SDS011;3532;51.118;7.210;2024-03-23T10:42:37;7.50;;;3.07;;
6983;SDS011;3532;51.118;7.210;2024-03-23T10:45:03;6.40;;;3.13;;
6983;SDS011;3532;51.118;7.210;2024-03-23T10:47:29;6.57;;;3.07;;
6983;SDS011;3532;51.118;7.210;2024-03-23T10:49:55;7.00;;;2.80;;
6983;SDS011;3532;51.118;7.210;2024-03-23T10:52:20;6.03;;;2.67;;
6983;SDS011;3532;51.118;7.210;2024-03-23T10:54:45;8.37;;;3.60;;
6983;SDS011;3532;51.118;7.210;2024-03-23T10:57:14;8.90;;;2.83;;
6983;SDS011;3532;51.118;7.210;2024-03-23T10:59:40;4.33;;;2.43;;
6983;SDS011;3532;51.118;7.210;2024-03-23T11:02:07;7.10;;;2.17;;
6983;SDS011;3532;51.118;7.210;2024-03-23T11:04:51;2.97;;;2.23;;
6983;SDS011;3532;51.118;7.210;2024-03-23T11:09:54;4.13;;;2.30;;
6983;SDS011;3532;51.118;7.210;2024-03-23T11:14:59;7.23;;;3.20;;
6983;SDS011;3532;51.118;7.210;2024-03-23T11:17:28;6.20;;;2.50;;
6983;SDS011;3532;51.118;7.210;2024-03-23T11:25:03;4.10;;;2.50;;
6983;SDS011;3532;51.118;7.210;2024-03-23T11:27:36;5.00;;;2.00;;
6983;SDS011;3532;51.118;7.210;2024-03-23T11:30:11;2.87;;;2.03;;
6983;SDS011;3532;51.118;7.210;2024-03-23T11:32:53;3.47;;;2.10;;
6983;SDS011;3532;51.118;7.210;2024-03-23T11:35:30;4.80;;;1.80;;
6983;SDS011;3532;51.118;7.210;2024-03-23T11:40:32;2.63;;;1.77;;
6983;SDS011;3532;51.118;7.210;2024-03-23T11:42:59;1.80;;;1.60;;
6983;SDS011;3532;51.118;7.210;2024-03-23T11:45:25;2.90;;;1.70;;
6983;SDS011;3532;51.118;7.210;2024-03-23T11:48:07;2.50;;;1.50;;
6983;SDS011;3532;51.118;7.210;2024-03-23T11:50:35;4.13;;;1.80;;
6983;SDS011;3532;51.118;7.210;2024-03-23T11:53:06;2.80;;;1.93;;
6983;SDS011;3532;51.118;7.210;2024-03-23T11:55:38;1.40;;;1.30;;
6983;SDS011;3532;51.118;7.210;2024-03-23T11:58:05;1.47;;;1.30;;
6983;SDS011;3532;51.118;7.210;2024-03-23T12:00:30;2.10;;;1.70;;
6983;SDS011;3532;51.118;7.210;2024-03-23T12:03:00;2.30;;;1.40;;
6983;SDS011;3532;51.118;7.210;2024-03-23T12:05:31;3.83;;;1.77;;
6983;SDS011;3532;51.118;7.210;2024-03-23T12:08:15;3.80;;;1.60;;
6983;SDS011;3532;51.118;7.210;2024-03-23T12:10:48;3.00;;;2.10;;
6983;SDS011;3532;51.118;7.210;2024-03-23T12:13:19;3.60;;;2.37;;
6983;SDS011;3532;51.118;7.210;2024-03-23T12:16:09;7.37;;;2.47;;
6983;SDS011;3532;51.118;7.210;2024-03-23T12:18:44;4.40;;;2.20;;
6983;SDS011;3532;51.118;7.210;2024-03-23T12:21:18;5.13;;;2.17;;
6983;SDS011;3532;51.118;7.210;2024-03-23T12:23:45;3.37;;;2.50;;
6983;SDS011;3532;51.118;7.210;2024-03-23T12:26:11;5.63;;;2.63;;
6983;SDS011;3532;51.118;7.210;2024-03-23T12:28:37;6.00;;;2.47;;
6983;SDS011;3532;51.118;7.210;2024-03-23T12:31:02;4.37;;;2.30;;
6983;SDS011;3532;51.118;7.210;2024-03-23T12:33:28;6.40;;;2.53;;
6983;SDS011;3532;51.118;7.210;2024-03-23T12:35:53;5.27;;;2.10;;
6983;SDS011;3532;51.118;7.210;2024-03-23T12:38:18;3.77;;;1.77;;
6983;SDS011;3532;51.118;7.210;2024-03-23T12:40:48;1.87;;;1.40;;
6983;SDS011;3532;51.118;7.210;2024-03-23T12:43:13;3.30;;;1.60;;
6983;SDS011;3532;51.118;7.210;2024-03-23T12:45:39;1.97;;;1.40;;
6983;SDS011;3532;51.118;7.210;2024-03-23T12:48:04;1.87;;;1.27;;
6983;SDS011;3532;51.118;7.210;2024-03-23T12:50:30;2.40;;;1.57;;
6983;SDS011;3532;51.118;7.210;2024-03-23T12:52:55;1.77;;;1.50;;
6983;SDS011;3532;51.118;7.210;2024-03-23T12:55:21;1.80;;;1.40;;
6983;SDS011;3532;51.118;7.210;2024-03-23T12:57:46;1.93;;;1.70;;
6983;SDS011;3532;51.118;7.210;2024-03-23T13:00:12;3.07;;;1.63;;
6983;SDS011;3532;51.118;7.210;2024-03-23T13:02:38;1.70;;;1.60;;
6983;SDS011;3532;51.118;7.210;2024-03-23T13:05:04;1.40;;;1.30;;
6983;SDS011;3532;51.118;7.210;2024-03-23T13:07:29;1.70;;;1.60;;
6983;SDS011;3532;51.118;7.210;2024-03-23T13:09:55;2.50;;;1.53;;
6983;SDS011;3532;51.118;7.210;2024-03-23T13:12:21;1.40;;;1.30;;
6983;SDS011;3532;51.118;7.210;2024-03-23T13:14:47;1.50;;;1.40;;
6983;SDS011;3532;51.118;7.210;2024-03-23T13:17:12;2.10;;;1.73;;
6983;SDS011;3532;51.118;7.210;2024-03-23T13:19:37;2.57;;;1.50;;
6983;SDS011;3532;51.118;7.210;2024-03-23T13:22:03;1.40;;;1.30;;
6983;SDS011;3532;51.118;7.210;2024-03-23T13:24:29;4.30;;;2.00;;
6983;SDS011;3532;51.118;7.210;2024-03-23T13:26:54;2.33;;;1.70;;
6983;SDS011;3532;51.118;7.210;2024-03-23T13:29:20;3.17;;;2.00;;
6983;SDS011;3532;51.118;7.210;2024-03-23T13:31:47;3.03;;;1.80;;
6983;SDS011;3532;51.118;7.210;2024-03-23T13:34:12;2.13;;;1.90;;
6983;SDS011;3532;51.118;7.210;2024-03-23T13:36:40;3.27;;;1.90;;
6983;SDS011;3532;51.118;7.210;2024-03-23T13:39:06;2.80;;;1.90;;
6983;SDS011;3532;51.118;7.210;2024-03-23T13:41:36;2.13;;;1.70;;
6983;SDS011;3532;51.118;7.210;2024-03-23T13:44:05;2.83;;;1.87;;
6983;SDS011;3532;51.118;7.210;2024-03-23T13:46:35;3.57;;;1.77;;
6983;SDS011;3532;51.118;7.210;2024-03-23T13:49:01;5.23;;;2.03;;
6983;SDS011;3532;51.118;7.210;2024-03-23T13:51:26;3.93;;;1.80;;
6983;SDS011;3532;51.118;7.210;2024-03-23T13:53:52;5.37;;;2.43;;
6983;SDS011;3532;51.118;7.210;2024-03-23T13:56:21;1.80;;;1.40;;
6983;SDS011;3532;51.118;7.210;2024-03-23T13:58:47;3.23;;;2.53;;
6983;SDS011;3532;51.118;7.210;2024-03-23T14:01:13;2.00;;;1.80;;
6983;SDS011;3532;51.118;7.210;2024-03-23T14:03:39;2.93;;;2.03;;
6983;SDS011;3532;51.118;7.210;2024-03-23T14:06:05;4.13;;;2.03;;
6983;SDS011;3532;51.118;7.210;2024-03-23T14:08:32;2.00;;;1.63;;
6983;SDS011;3532;51.118;7.210;2024-03-23T14:10:59;1.90;;;1.50;;
6983;SDS011;3532;51.118;7.210;2024-03-23T14:13:24;4.33;;;2.23;;
6983;SDS011;3532;51.118;7.210;2024-03-23T14:15:53;2.03;;;1.60;;
6983;SDS011;3532;51.118;7.210;2024-03-23T14:18:18;4.10;;;1.73;;
6983;SDS011;3532;51.118;7.210;2024-03-23T14:20:45;2.00;;;1.80;;
6983;SDS011;3532;51.118;7.210;2024-03-23T14:23:10;3.77;;;1.87;;
6983;SDS011;3532;51.118;7.210;2024-03-23T14:25:37;4.30;;;1.70;;
6983;SDS011;3532;51.118;7.210;2024-03-23T14:28:03;4.13;;;2.20;;
6983;SDS011;3532;51.118;7.210;2024-03-23T14:30:28;3.33;;;2.17;;
6983;SDS011;3532;51.118;7.210;2024-03-23T14:32:54;3.83;;;2.33;;
6983;SDS011;3532;51.118;7.210;2024-03-23T14:35:19;4.03;;;2.13;;
6983;SDS011;3532;51.118;7.210;2024-03-23T14:37:44;4.07;;;1.90;;
6983;SDS011;3532;51.118;7.210;2024-03-23T14:40:12;2.90;;;2.03;;
6983;SDS011;3532;51.118;7.210;2024-03-23T14:42:37;4.33;;;2.07;;
6983;SDS011;3532;51.118;7.210;2024-03-23T14:45:03;4.17;;;2.10;;
6983;SDS011;3532;51.118;7.210;2024-03-23T14:47:29;2.10;;;1.90;;
6983;SDS011;3532;51.118;7.210;2024-03-23T14:49:54;3.00;;;1.90;;
6983;SDS011;3532;51.118;7.210;2024-03-23T14:52:19;2.07;;;1.87;;
6983;SDS011;3532;51.118;7.210;2024-03-23T14:54:45;3.43;;;1.70;;
6983;SDS011;3532;51.118;7.210;2024-03-23T14:57:10;2.00;;;1.80;;
6983;SDS011;3532;51.118;7.210;2024-03-23T14:59:36;3.93;;;2.00;;
6983;SDS011;3532;51.118;7.210;2024-03-23T15:02:03;2.27;;;1.80;;
6983;SDS011;3532;51.118;7.210;2024-03-23T15:04:31;2.73;;;2.00;;
6983;SDS011;3532;51.118;7.210;2024-03-23T15:06:57;3.60;;;1.90;;
6983;SDS011;3532;51.118;7.210;2024-03-23T15:09:22;8.37;;;2.67;;
6983;SDS011;3532;51.118;7.210;2024-03-23T15:11:47;4.17;;;2.33;;
6983;SDS011;3532;51.118;7.210;2024-03-23T15:14:12;2.50;;;2.23;;
6983;SDS011;3532;51.118;7.210;2024-03-23T15:16:38;4.33;;;1.50;;
6983;SDS011;3532;51.118;7.210;2024-03-23T15:19:03;2.50;;;1.90;;
6983;SDS011;3532;51.118;7.210;2024-03-23T15:21:31;3.10;;;1.70;;
6983;SDS011;3532;51.118;7.210;2024-03-23T15:23:56;2.63;;;2.00;;
6983;SDS011;3532;51.118;7.210;2024-03-23T15:26:22;3.07;;;2.20;;
6983;SDS011;3532;51.118;7.210;2024-03-23T15:28:48;2.07;;;1.67;;
6983;SDS011;3532;51.118;7.210;2024-03-23T15:31:22;2.20;;;1.70;;
6983;SDS011;3532;51.118;7.210;2024-03-23T15:33:47;1.93;;;1.70;;
6983;SDS011;3532;51.118;7.210;2024-03-23T15:36:13;2.10;;;1.70;;
6983;SDS011;3532;51.118;7.210;2024-03-23T15:38:38;2.03;;;1.53;;
6983;SDS011;3532;51.118;7.210;2024-03-23T15:41:04;4.53;;;2.03;;
6983;SDS011;3532;51.118;7.210;2024-03-23T15:43:29;3.30;;;1.83;;
6983;SDS011;3532;51.118;7.210;2024-03-23T15:46:03;3.47;;;1.57;;
6983;SDS011;3532;51.118;7.210;2024-03-23T15:48:29;2.07;;;1.87;;
6983;SDS011;3532;51.118;7.210;2024-03-23T15:50:56;2.90;;;1.63;;
6983;SDS011;3532;51.118;7.210;2024-03-23T15:53:23;1.80;;;1.47;;
6983;SDS011;3532;51.118;7.210;2024-03-23T15:55:55;2.53;;;1.60;;
6983;SDS011;3532;51.118;7.210;2024-03-23T15:58:25;3.67;;;1.80;;
6983;SDS011;3532;51.118;7.210;2024-03-23T16:00:57;2.43;;;1.70;;
6983;SDS011;3532;51.118;7.210;2024-03-23T16:03:25;2.80;;;1.77;;
6983;SDS011;3532;51.118;7.210;2024-03-23T16:05:53;3.57;;;2.00;;
6983;SDS011;3532;51.118;7.210;2024-03-23T16:08:19;2.77;;;1.80;;
6983;SDS011;3532;51.118;7.210;2024-03-23T16:10:45;1.80;;;1.57;;
6983;SDS011;3532;51.118;7.210;2024-03-23T16:13:11;2.17;;;1.90;;
6983;SDS011;3532;51.118;7.210;2024-03-23T16:15:36;4.20;;;1.83;;
6983;SDS011;3532;51.118;7.210;2024-03-23T16:18:01;2.63;;;1.97;;
6983;SDS011;3532;51.118;7.210;2024-03-23T16:20:27;4.47;;;2.40;;